Time;durP1;ratioP1;P1;durP2;ratioP2;P2;SDS_P1;SDS_P2;PMS_P1;PMS_P2;Temp;Humidity;BMP_temperature;BMP_pressure;BME280_temperature;BME280_humidity;BME280_pressure;Samples;Min_cycle;Max_cycle;Signal;HPM_P1;HPM_P2
2024/04/10 00:02:18;;;;;;;2.97;1.10;;;;;;;-145.69;59.04;52034.47;5525027;26;20256;-79
2024/04/10 00:04:45;;;;;;;0.80;0.70;;;;;;;-145.69;58.61;52078.03;5524448;26;20333;-78
2024/04/10 00:07:13;;;;;;;3.67;0.90;;;;;;;-145.69;58.47;52082.00;5524446;26;20549;-78
2024/04/10 00:09:40;;;;;;;3.30;1.00;;;;;;;-145.69;58.23;52068.13;5524677;25;20293;-78
2024/04/10 00:12:08;;;;;;;2.63;1.00;;;;;;;-145.69;58.31;52068.13;5524462;25;20631;-78
2024/04/10 00:14:36;;;;;;;4.23;1.20;;;;;;;-145.69;57.44;52056.25;5524549;25;20260;-78
2024/04/10 00:17:07;;;;;;;2.63;1.27;;;;;;;-145.69;56.17;52080.00;5541495;25;20225;-78
2024/04/10 00:19:33;;;;;;;5.73;1.10;;;;;;;-145.69;56.05;52072.09;5562034;25;20220;-78
2024/04/10 00:22:03;;;;;;;3.13;1.30;;;;;;;-145.69;56.32;52044.38;5534395;25;20233;-78
2024/04/10 00:24:29;;;;;;;6.37;1.27;;;;;;;-145.69;56.20;52083.97;5524153;25;20230;-77
2024/04/10 00:26:57;;;;;;;3.27;1.13;;;;;;;-145.69;56.50;52072.09;5524323;25;20579;-78
2024/04/10 00:29:22;;;;;;;4.00;1.20;;;;;;;-145.69;56.43;52080.00;5523989;25;20264;-77
2024/04/10 00:31:53;;;;;;;2.83;1.20;;;;;;;-145.69;56.77;52097.84;5524208;25;20225;-78
2024/04/10 00:34:21;;;;;;;3.57;1.10;;;;;;;-145.69;56.80;52052.28;5524190;25;20234;-79
2024/04/10 00:36:49;;;;;;;4.17;1.30;;;;;;;-145.69;57.27;52089.91;5524194;25;20230;-78
2024/04/10 00:39:17;;;;;;;6.90;1.37;;;;;;;-145.69;58.20;52058.22;5524336;25;20264;-78
2024/04/10 00:41:46;;;;;;;6.57;1.27;;;;;;;-145.69;58.56;52103.78;5526936;25;20272;-78
2024/04/10 00:44:11;;;;;;;2.37;1.30;;;;;;;-145.69;59.63;52064.16;5527577;25;20727;-78
2024/04/10 00:46:40;;;;;;;1.93;1.10;;;;;;;-145.69;59.87;52076.03;5518542;25;20325;-77
2024/04/10 00:49:08;;;;;;;5.20;1.50;;;;;;;-145.69;60.14;52046.34;5527675;25;20237;-78
2024/04/10 00:51:39;;;;;;;5.77;1.40;;;;;;;-145.69;60.10;52076.03;5527647;25;20233;-78
2024/04/10 00:54:07;;;;;;;4.90;1.37;;;;;;;-145.69;60.44;52064.16;5527509;25;20318;-79
2024/04/10 00:56:35;;;;;;;2.77;1.30;;;;;;;-145.69;60.37;52052.28;5527503;25;20217;-79
2024/04/10 00:59:01;;;;;;;5.90;1.53;;;;;;;-145.69;60.47;52072.09;5527838;25;20225;-78
2024/04/10 01:01:29;;;;;;;1.40;1.20;;;;;;;-145.69;60.59;52066.16;5527802;25;20230;-79
2024/04/10 01:03:57;;;;;;;8.13;1.60;;;;;;;-145.69;60.59;52099.81;5526691;25;20237;-78
2024/04/10 01:06:33;;;;;;;2.13;1.30;;;;;;;-145.69;60.61;52036.44;5527285;25;20684;-79
2024/04/10 01:09:02;;;;;;;1.63;1.30;;;;;;;-145.69;60.58;52091.88;5527813;25;20585;-79
2024/04/10 01:11:31;;;;;;;3.07;1.10;;;;;;;-145.69;60.91;52056.25;5527278;25;20229;-78
2024/04/10 01:13:56;;;;;;;6.13;1.67;;;;;;;-145.69;60.58;52072.09;5527178;25;20237;-78
2024/04/10 01:16:24;;;;;;;1.77;1.10;;;;;;;-145.69;60.72;52087.94;5530006;25;20341;-78
2024/04/10 01:18:50;;;;;;;4.17;1.20;;;;;;;-145.69;60.51;52072.09;5529908;25;20233;-78
2024/04/10 01:21:18;;;;;;;5.00;1.40;;;;;;;-145.69;60.82;52072.09;5526254;25;20284;-78
2024/04/10 01:23:46;;;;;;;1.70;1.20;;;;;;;-145.69;60.62;52064.16;5526909;25;20233;-77
2024/04/10 01:26:14;;;;;;;1.90;1.00;;;;;;;-145.69;60.55;52040.41;5527578;25;20260;-79
2024/04/10 01:28:40;;;;;;;3.70;1.10;;;;;;;-145.69;60.54;52076.03;5527225;25;20724;-79
2024/04/10 01:31:08;;;;;;;5.03;1.07;;;;;;;-145.69;60.44;52066.16;5527171;25;20225;-79
2024/04/10 01:33:34;;;;;;;5.93;1.63;;;;;;;-145.69;60.26;52046.34;5527141;25;20320;-78
2024/04/10 01:36:02;;;;;;;2.80;0.90;;;;;;;-145.69;60.19;52087.94;5527171;25;20267;-79
2024/04/10 01:38:28;;;;;;;3.40;1.40;;;;;;;-145.69;60.29;52066.16;5526647;25;20256;-77
2024/04/10 01:40:59;;;;;;;3.73;1.00;;;;;;;-145.69;60.16;52062.19;5526623;25;20237;-78
2024/04/10 01:43:25;;;;;;;2.70;1.03;;;;;;;-145.69;59.86;52048.31;5527053;25;20237;-77
2024/04/10 01:45:53;;;;;;;0.93;0.70;;;;;;;-145.69;59.98;52091.88;5527354;25;20731;-77
2024/04/10 01:48:18;;;;;;;2.57;1.13;;;;;;;-145.69;59.83;52072.09;5529948;25;20233;-77
2024/04/10 01:50:47;;;;;;;3.10;0.90;;;;;;;-145.69;59.74;52080.00;5524732;26;20807;-79
2024/04/10 01:53:12;;;;;;;1.70;0.83;;;;;;;-145.69;59.94;52087.94;5525990;25;20760;-77
2024/04/10 01:55:41;;;;;;;2.37;1.10;;;;;;;-145.69;60.07;52048.31;5526548;26;20333;-77
2024/04/10 01:58:09;;;;;;;2.93;1.00;;;;;;;-145.69;59.81;52085.94;5526905;25;20222;-78
2024/04/10 02:00:37;;;;;;;3.37;0.93;;;;;;;-145.69;59.89;52066.16;5526980;25;20645;-79
2024/04/10 02:03:04;;;;;;;1.53;1.10;;;;;;;-145.69;59.86;52060.22;5527195;25;20305;-78
2024/04/10 02:05:32;;;;;;;4.13;0.90;;;;;;;-145.69;59.89;52046.34;5527211;25;20317;-78
2024/04/10 02:07:57;;;;;;;1.87;0.87;;;;;;;-145.69;59.98;52072.09;5526266;25;20268;-78
2024/04/10 02:10:26;;;;;;;3.27;1.10;;;;;;;-145.69;60.13;52103.78;5526708;25;20693;-78
2024/04/10 02:12:51;;;;;;;3.17;0.90;;;;;;;-145.69;60.26;52034.47;5526295;25;20328;-78
2024/04/10 02:15:22;;;;;;;3.13;1.00;;;;;;;-145.69;60.60;52119.63;5526423;25;20234;-78
2024/04/10 02:17:53;;;;;;;3.17;1.17;;;;;;;-145.69;60.88;52072.09;5526771;25;20225;-79
2024/04/10 02:20:21;;;;;;;3.90;1.00;;;;;;;-145.69;61.23;52109.72;5526600;25;20229;-78
2024/04/10 02:22:47;;;;;;;3.63;1.37;;;;;;;-145.69;61.90;52091.88;5526192;25;20669;-78
2024/04/10 02:25:16;;;;;;;3.20;0.97;;;;;;;-145.69;61.69;52123.56;5526727;25;20229;-79
2024/04/10 02:27:43;;;;;;;2.93;1.00;;;;;;;-145.69;61.56;52054.25;5525825;25;20568;-78
2024/04/10 02:30:11;;;;;;;3.77;1.17;;;;;;;-145.69;61.49;52111.69;5526496;25;20812;-78
2024/04/10 02:32:39;;;;;;;2.40;0.90;;;;;;;-145.69;61.51;52115.66;5525999;25;20281;-77
2024/04/10 02:35:08;;;;;;;4.97;1.00;;;;;;;-145.69;61.80;52111.69;5526487;25;20225;-77
2024/04/10 02:37:33;;;;;;;2.07;1.00;;;;;;;-145.69;61.66;52089.91;5535570;25;20548;-78
2024/04/10 02:40:03;;;;;;;2.53;0.90;;;;;;;-145.69;61.57;52123.56;5517341;25;20268;-78
2024/04/10 02:42:31;;;;;;;3.40;1.13;;;;;;;-145.69;62.06;52129.50;5488871;26;20623;-78
2024/04/10 02:45:01;;;;;;;2.00;1.03;;;;;;;-145.69;62.27;52087.94;5489518;26;20289;-78
2024/04/10 02:47:26;;;;;;;2.63;1.43;;;;;;;-145.69;62.26;52091.88;5489475;26;20295;-77
2024/04/10 02:49:57;;;;;;;3.67;1.07;;;;;;;-145.69;63.11;52091.88;5488003;26;20347;-76
2024/04/10 02:52:25;;;;;;;4.30;1.00;;;;;;;-145.69;62.49;52103.78;5522148;26;20268;-78
2024/04/10 02:54:53;;;;;;;4.17;1.43;;;;;;;-145.69;62.64;52115.66;5526334;25;20549;-78
2024/04/10 02:57:19;;;;;;;1.87;1.13;;;;;;;-145.69;62.50;52091.88;5525703;25;20334;-78
2024/04/10 02:59:47;;;;;;;3.90;1.00;;;;;;;-145.69;62.37;52113.66;5526427;25;20237;-78
2024/04/10 03:02:15;;;;;;;5.60;1.00;;;;;;;-145.69;62.71;52095.84;5525575;25;20256;-79
2024/04/10 03:04:44;;;;;;;4.83;1.50;;;;;;;-145.69;62.98;52111.69;5524442;25;20225;-77
2024/04/10 03:07:15;;;;;;;2.63;1.00;;;;;;;-145.69;62.69;52093.88;5529135;25;20728;-78
2024/04/10 03:09:43;;;;;;;4.23;1.43;;;;;;;-145.69;62.74;52111.69;5562775;25;20280;-79
2024/04/10 03:12:10;;;;;;;4.60;1.20;;;;;;;-145.69;62.23;52103.78;5562217;25;20221;-77
2024/04/10 03:14:42;;;;;;;4.33;1.27;;;;;;;-145.69;61.95;52072.09;5524908;25;20245;-77
2024/04/10 03:17:11;;;;;;;4.00;1.17;;;;;;;-145.69;61.01;52121.59;5525727;25;20217;-79
2024/04/10 03:19:39;;;;;;;8.67;1.30;;;;;;;-145.69;60.13;52072.09;5525667;25;20218;-78
2024/04/10 03:22:05;;;;;;;3.47;1.40;;;;;;;-145.69;60.29;52085.94;5525387;25;20276;-79
2024/04/10 03:26:12;;;;;;;3.73;1.37;;;;;;;-145.69;60.10;52135.47;5507041;25;20641;-80
2024/04/10 03:28:41;;;;;;;6.50;1.20;;;;;;;-145.69;60.16;52093.88;5507754;25;20222;-79
2024/04/10 03:31:09;;;;;;;3.67;1.27;;;;;;;-145.69;60.61;52125.56;5506641;25;20701;-79
2024/04/10 03:33:35;;;;;;;4.47;0.90;;;;;;;-145.69;60.24;52095.84;5507615;25;20261;-78
2024/04/10 03:36:04;;;;;;;2.97;1.30;;;;;;;-145.69;60.79;52101.78;5507272;25;20234;-79
2024/04/10 03:38:30;;;;;;;7.87;1.50;;;;;;;-145.69;61.45;52074.06;5506760;25;20226;-79
2024/04/10 03:40:58;;;;;;;4.30;1.23;;;;;;;-145.69;61.39;52085.94;5507331;25;20226;-79
2024/04/10 03:43:29;;;;;;;8.73;1.43;;;;;;;-145.69;62.06;52121.59;5506811;25;20311;-80
2024/04/10 03:45:58;;;;;;;2.67;1.00;;;;;;;-145.69;61.83;52131.50;5506754;25;20282;-79
2024/04/10 03:48:26;;;;;;;4.20;1.30;;;;;;;-145.69;62.03;52115.66;5470385;26;20223;-79
2024/04/10 03:51:00;;;;;;;7.73;1.63;;;;;;;-145.69;61.65;52101.78;5496209;26;20288;-79
2024/04/10 03:53:26;;;;;;;8.07;1.60;;;;;;;-145.69;61.75;52113.66;5507311;25;20221;-79
2024/04/10 03:55:54;;;;;;;9.57;1.63;;;;;;;-145.69;61.56;52129.50;5506334;25;20724;-79
2024/04/10 03:58:25;;;;;;;5.00;1.50;;;;;;;-145.69;61.54;52097.84;5507503;25;20348;-79
2024/04/10 04:00:53;;;;;;;6.63;1.53;;;;;;;-145.69;61.15;52097.84;5507440;25;20230;-79
2024/04/10 04:03:21;;;;;;;7.47;1.67;;;;;;;-145.69;61.32;52123.56;5506493;25;20230;-77
2024/04/10 04:05:47;;;;;;;6.57;1.67;;;;;;;-145.69;61.62;52099.81;5507204;25;20282;-79
2024/04/10 04:08:15;;;;;;;4.83;1.33;;;;;;;-145.69;61.36;52115.66;5506194;25;20817;-79
2024/04/10 04:10:42;;;;;;;13.17;1.60;;;;;;;-145.69;61.61;52087.94;5507230;25;20322;-79
2024/04/10 04:13:11;;;;;;;3.23;1.33;;;;;;;-145.69;61.49;52072.09;5506890;25;20595;-78
2024/04/10 04:15:40;;;;;;;5.30;1.27;;;;;;;-145.69;61.39;52115.66;5507197;25;20230;-79
2024/04/10 04:18:11;;;;;;;3.13;1.50;;;;;;;-145.69;61.84;52123.56;5506715;25;20241;-78
2024/04/10 04:20:37;;;;;;;4.20;1.13;;;;;;;-145.69;61.89;52141.41;5506370;25;20222;-78
2024/04/10 04:23:05;;;;;;;8.67;2.90;;;;;;;-145.69;62.32;52115.66;5506897;25;20260;-78
2024/04/10 04:25:33;;;;;;;4.30;1.43;;;;;;;-145.69;62.06;52091.88;5537109;25;20280;-78
2024/04/10 04:28:01;;;;;;;4.20;1.30;;;;;;;-145.69;61.46;52083.97;5543315;25;20747;-78
2024/04/10 04:30:27;;;;;;;5.77;1.30;;;;;;;-145.69;61.17;52135.47;5542812;25;20267;-79
2024/04/10 04:32:56;;;;;;;9.90;1.40;;;;;;;-145.69;60.71;52095.84;5543245;25;20225;-78
2024/04/10 04:35:24;;;;;;;7.20;1.40;;;;;;;-145.69;59.89;52074.06;5539475;25;20229;-78
2024/04/10 04:37:58;;;;;;;6.50;1.40;;;;;;;-145.69;59.41;52091.88;5527483;25;20680;-78
2024/04/10 04:40:30;;;;;;;5.23;1.00;;;;;;;-145.69;58.99;52070.09;5494573;26;20277;-78
2024/04/10 04:43:08;;;;;;;6.90;1.37;;;;;;;-145.69;58.98;52095.84;5491243;26;20219;-78
2024/04/10 04:45:34;;;;;;;3.10;1.57;;;;;;;-145.69;58.28;52103.78;5490003;26;20226;-78
2024/04/10 04:48:02;;;;;;;4.27;2.20;;;;;;;-145.69;58.74;52107.72;5523084;26;20603;-78
2024/04/10 04:50:33;;;;;;;7.23;1.63;;;;;;;-145.69;58.32;52064.16;5527603;26;20285;-78
2024/04/10 04:53:01;;;;;;;2.83;1.23;;;;;;;-145.69;58.92;52101.78;5527843;26;20226;-78
2024/04/10 04:55:27;;;;;;;4.80;1.20;;;;;;;-145.69;58.66;52087.94;5527661;26;20225;-78
2024/04/10 04:57:55;;;;;;;10.77;1.40;;;;;;;-145.69;58.59;52103.78;5526655;26;20255;-78
2024/04/10 05:00:22;;;;;;;7.60;1.70;;;;;;;-145.69;58.88;52083.97;5526066;26;20861;-78
2024/04/10 05:02:50;;;;;;;5.30;1.20;;;;;;;-145.69;58.91;52101.78;5527155;26;20255;-78
2024/04/10 05:05:17;;;;;;;3.00;1.40;;;;;;;-145.69;59.21;52103.78;5527164;26;20692;-78
2024/04/10 05:07:48;;;;;;;8.57;1.40;;;;;;;-145.69;58.58;52103.78;5526427;26;20225;-78
2024/04/10 05:10:17;;;;;;;4.13;1.63;;;;;;;-145.69;58.56;52129.50;5527568;26;20256;-78
2024/04/10 05:12:43;;;;;;;6.53;1.30;;;;;;;-145.69;58.65;52083.97;5527265;26;20320;-78
2024/04/10 05:15:13;;;;;;;7.33;1.60;;;;;;;-145.69;58.52;52115.66;5526934;26;20328;-79
2024/04/10 05:17:38;;;;;;;4.77;2.33;;;;;;;-145.69;58.55;52095.84;5527339;26;20221;-78
2024/04/10 05:20:10;;;;;;;7.93;2.00;;;;;;;-145.69;58.78;52076.03;5526380;26;20259;-78
2024/04/10 05:22:36;;;;;;;6.60;1.70;;;;;;;-145.69;59.18;52113.66;5526953;26;20813;-78
2024/04/10 05:25:09;;;;;;;10.17;1.50;;;;;;;-145.69;58.98;52103.78;5526635;26;20242;-78
2024/04/10 05:27:36;;;;;;;7.13;1.53;;;;;;;-145.69;59.24;52095.84;5527239;26;20735;-78
2024/04/10 05:30:07;;;;;;;5.73;1.53;;;;;;;-145.69;59.42;52103.78;5525838;26;20237;-78
2024/04/10 05:32:37;;;;;;;8.43;2.53;;;;;;;-145.69;59.07;52103.78;5526633;26;20221;-79
2024/04/10 05:35:09;;;;;;;12.60;2.10;;;;;;;-145.69;59.66;52101.78;5526699;26;20260;-79
2024/04/10 05:37:37;;;;;;;7.17;1.70;;;;;;;-145.69;59.78;52068.13;5527546;26;20256;-78
2024/04/10 05:40:08;;;;;;;11.37;2.77;;;;;;;-145.69;59.33;52103.78;5525923;26;20272;-78
2024/04/10 05:42:37;;;;;;;5.00;2.53;;;;;;;-145.69;59.16;52091.88;5526623;26;20264;-79
2024/04/10 05:45:03;;;;;;;7.90;2.50;;;;;;;-145.69;60.09;52097.84;5525157;26;20340;-79
2024/04/10 05:47:32;;;;;;;10.27;2.30;;;;;;;-145.69;59.01;52083.97;5525350;26;20569;-79
2024/04/10 05:49:57;;;;;;;6.53;2.20;;;;;;;-145.69;58.31;52091.88;5526616;26;20271;-79
2024/04/10 05:52:26;;;;;;;4.37;1.40;;;;;;;-145.69;58.42;52062.19;5525907;26;20226;-79
2024/04/10 05:54:53;;;;;;;6.10;2.20;;;;;;;-145.69;58.00;52113.66;5526766;26;20222;-78
2024/04/10 05:57:24;;;;;;;6.30;1.60;;;;;;;-145.69;57.46;52068.13;5526410;26;20615;-79
2024/04/10 05:59:51;;;;;;;5.00;1.80;;;;;;;-145.69;57.98;52091.88;5525791;26;20362;-78
2024/04/10 06:02:19;;;;;;;6.03;1.97;;;;;;;-145.69;57.85;52072.09;5526432;26;20233;-78
2024/04/10 06:04:45;;;;;;;3.27;1.27;;;;;;;-145.69;57.13;52091.88;5526244;26;20277;-79
2024/04/10 06:07:13;;;;;;;4.27;1.33;;;;;;;-145.69;56.80;52078.03;5526567;26;20808;-78
2024/04/10 06:09:38;;;;;;;3.90;1.30;;;;;;;-145.69;56.92;52083.97;5526362;26;20415;-78
2024/04/10 06:12:07;;;;;;;4.30;1.17;;;;;;;-145.69;56.68;52070.09;5526175;26;20237;-78
2024/04/10 06:14:35;;;;;;;5.57;1.13;;;;;;;-145.69;55.79;52080.00;5525519;26;20277;-78
2024/04/10 06:17:04;;;;;;;7.47;1.87;;;;;;;-145.69;55.67;52115.66;5526501;26;20214;-78
2024/04/10 06:19:29;;;;;;;5.30;1.77;;;;;;;-145.69;55.70;52091.88;5526496;26;20221;-78
2024/04/10 06:21:57;;;;;;;3.80;1.53;;;;;;;-145.69;55.52;52099.81;5525676;26;20877;-77
2024/04/10 06:24:23;;;;;;;6.17;1.50;;;;;;;-145.69;55.59;52072.09;5526074;26;20272;-81
2024/04/10 06:26:52;;;;;;;6.27;1.33;;;;;;;-145.69;54.79;52099.81;5526369;26;20688;-79
2024/04/10 06:29:18;;;;;;;5.30;1.47;;;;;;;-145.69;54.87;52052.28;5525663;26;20666;-78
2024/04/10 06:31:49;;;;;;;4.87;1.50;;;;;;;-145.69;54.86;52064.16;5525588;26;20241;-79
2024/04/10 06:34:15;;;;;;;5.57;1.53;;;;;;;-145.69;54.18;52064.16;5525216;26;20217;-79
2024/04/10 06:36:43;;;;;;;6.80;2.03;;;;;;;-145.69;54.03;52078.03;5525939;26;20220;-79
2024/04/10 06:39:10;;;;;;;7.77;1.43;;;;;;;-145.69;54.10;52066.16;5526082;26;20260;-79
2024/04/10 06:41:38;;;;;;;7.33;1.60;;;;;;;-145.69;54.04;52099.81;5520625;25;20261;-79
2024/04/10 06:44:07;;;;;;;6.40;1.50;;;;;;;-145.69;53.13;52103.78;5525600;26;20225;-78
2024/04/10 06:46:42;;;;;;;7.27;1.83;;;;;;;-145.69;53.24;52101.78;5525735;26;20321;-79
2024/04/10 06:49:11;;;;;;;7.70;1.50;;;;;;;-145.69;51.71;52085.94;5525790;26;20545;-79
2024/04/10 06:51:40;;;;;;;9.60;2.30;;;;;;;-145.69;51.30;52082.00;5525528;26;20576;-79
2024/04/10 06:54:08;;;;;;;8.97;1.73;;;;;;;-145.69;51.53;52044.38;5525944;26;20229;-79
2024/04/10 06:56:39;;;;;;;8.20;1.33;;;;;;;-145.69;51.41;52060.22;5525693;26;20263;-78
2024/04/10 06:59:07;;;;;;;6.80;1.50;;;;;;;-145.69;50.92;52068.13;5524798;26;20357;-78
2024/04/10 07:01:35;;;;;;;12.40;1.33;;;;;;;-145.69;51.21;52056.25;5525060;26;20230;-79
2024/04/10 07:04:01;;;;;;;9.23;1.33;;;;;;;-145.69;51.38;52066.16;5525572;26;20226;-79
2024/04/10 07:06:34;;;;;;;4.60;1.83;;;;;;;-145.69;51.44;52089.91;5525516;26;20308;-78
2024/04/10 07:08:59;;;;;;;5.97;1.60;;;;;;;-145.69;51.62;52040.41;5525545;26;20538;-79
2024/04/10 07:11:28;;;;;;;6.23;1.53;;;;;;;-145.69;51.01;52087.94;5524166;26;20267;-78
2024/04/10 07:13:54;;;;;;;10.07;2.30;;;;;;;-145.69;50.85;52074.06;5525251;26;20230;-78
2024/04/10 07:16:30;;;;;;;3.93;1.37;;;;;;;-145.69;50.62;52024.56;5525534;26;20734;-78
2024/04/10 07:18:56;;;;;;;6.60;1.33;;;;;;;-145.69;50.08;52054.25;5525503;26;20218;-78
2024/04/10 07:21:27;;;;;;;13.93;1.70;;;;;;;-145.69;49.12;52060.22;5525484;26;20221;-78
2024/04/10 07:23:55;;;;;;;12.00;1.80;;;;;;;-145.69;49.05;52085.94;5524411;26;20263;-78
2024/04/10 07:26:26;;;;;;;4.40;1.50;;;;;;;-145.69;48.41;52066.16;5524341;26;20235;-79
2024/04/10 07:28:53;;;;;;;7.57;1.77;;;;;;;-145.69;48.18;52044.38;5525131;26;20284;-79
2024/04/10 07:31:25;;;;;;;5.47;1.50;;;;;;;-145.69;47.42;52024.56;5524690;26;20340;-79
2024/04/10 07:33:51;;;;;;;4.80;1.63;;;;;;;-145.69;47.21;52064.16;5525034;26;20230;-78
2024/04/10 07:36:24;;;;;;;8.80;1.70;;;;;;;-145.69;47.39;52056.25;5524289;26;20293;-78
2024/04/10 07:38:52;;;;;;;6.00;1.80;;;;;;;-145.69;47.66;52066.16;5525000;26;20221;-77
2024/04/10 07:41:25;;;;;;;7.73;2.00;;;;;;;-145.69;46.94;52028.53;5524737;26;20260;-78
2024/04/10 07:43:51;;;;;;;8.60;2.03;;;;;;;-145.69;46.83;52042.38;5523725;26;20724;-78
2024/04/10 07:46:23;;;;;;;7.13;1.57;;;;;;;-145.69;46.69;51996.84;5524409;26;20263;-79
2024/04/10 07:48:52;;;;;;;12.93;1.60;;;;;;;-145.69;45.77;52036.44;5524833;26;20255;-78
2024/04/10 07:51:22;;;;;;;14.07;1.87;;;;;;;-145.69;45.14;52076.03;5524703;26;20222;-78
2024/04/10 07:53:48;;;;;;;7.53;1.50;;;;;;;-145.69;44.19;52054.25;5525197;26;20289;-78
2024/04/10 07:56:17;;;;;;;4.60;1.20;;;;;;;-145.69;44.10;52040.41;5524593;26;20221;-78
2024/04/10 07:58:45;;;;;;;5.00;1.33;;;;;;;-145.69;44.02;52020.59;5524497;26;20613;-80
2024/04/10 08:01:17;;;;;;;8.67;1.30;;;;;;;-145.69;43.68;52072.09;5523678;26;20221;-79
2024/04/10 08:03:43;;;;;;;6.53;1.70;;;;;;;-145.69;43.41;52087.94;5524414;26;20217;-79
2024/04/10 08:06:12;;;;;;;6.50;1.67;;;;;;;-145.69;43.56;52076.03;5524589;26;20273;-79
2024/04/10 08:08:39;;;;;;;7.63;1.63;;;;;;;-145.69;43.02;52032.47;5524344;26;20696;-78
2024/04/10 08:11:10;;;;;;;6.10;1.47;;;;;;;-145.69;43.29;52038.44;5524290;26;20588;-78
2024/04/10 08:13:37;;;;;;;7.57;1.60;;;;;;;-145.69;43.58;51979.03;5514182;26;20238;-78
2024/04/10 08:16:11;;;;;;;9.83;1.57;;;;;;;-145.69;43.74;52024.56;5514525;26;20755;-78
2024/04/10 08:18:38;;;;;;;7.80;1.77;;;;;;;-145.69;43.59;52020.59;5527575;26;20229;-78
2024/04/10 08:21:08;;;;;;;4.97;1.33;;;;;;;-145.69;43.31;52024.56;5528129;26;20267;-78
2024/04/10 08:23:35;;;;;;;13.13;2.00;;;;;;;-145.69;42.79;51996.84;5528154;26;20292;-79
2024/04/10 08:26:11;;;;;;;10.40;1.90;;;;;;;-145.69;42.41;52028.53;5527860;26;20276;-78
2024/04/10 08:28:45;;;;;;;9.07;1.57;;;;;;;-145.69;42.00;52034.47;5527611;26;20567;-79
2024/04/10 08:31:21;;;;;;;7.93;1.70;;;;;;;-145.69;42.21;52000.81;5513808;26;20560;-78
2024/04/10 08:33:48;;;;;;;13.00;1.50;;;;;;;-145.69;42.05;52022.59;5497195;26;20256;-79
2024/04/10 08:36:17;;;;;;;7.47;1.60;;;;;;;-145.69;41.78;52056.25;5523601;26;20298;-78
2024/04/10 08:38:44;;;;;;;8.07;1.60;;;;;;;-145.69;42.20;52052.28;5527047;26;20338;-78
2024/04/10 08:41:15;;;;;;;6.07;1.60;;;;;;;-145.69;41.95;52020.59;5506872;25;20772;-80
2024/04/10 08:43:43;;;;;;;11.43;1.80;;;;;;;-145.69;41.59;51988.91;5525273;26;20229;-79
2024/04/10 08:46:12;;;;;;;12.27;1.60;;;;;;;-145.69;41.44;52014.66;5527587;26;20229;-79
2024/04/10 08:48:52;;;;;;;9.57;2.00;;;;;;;-145.69;41.18;52026.53;5506443;26;20264;-79
2024/04/10 08:51:18;;;;;;;4.40;1.30;;;;;;;-145.69;41.55;52040.41;5508131;26;20222;-78
2024/04/10 08:53:47;;;;;;;11.00;1.67;;;;;;;-145.69;41.27;52012.69;5527745;26;20663;-78
2024/04/10 08:56:15;;;;;;;9.10;1.83;;;;;;;-145.69;40.75;52018.63;5527301;26;20221;-78
2024/04/10 08:58:47;;;;;;;5.73;1.43;;;;;;;-145.69;40.93;52000.81;5527125;26;20234;-80
2024/04/10 09:01:24;;;;;;;6.43;1.40;;;;;;;-145.69;40.32;52040.41;5527463;26;20222;-79
2024/04/10 09:03:54;;;;;;;13.30;1.53;;;;;;;-145.69;40.32;52036.44;5527606;26;20615;-79
2024/04/10 09:06:20;;;;;;;4.63;1.57;;;;;;;-145.69;40.52;52018.63;5516940;26;20267;-79
2024/04/10 09:08:58;;;;;;;9.83;1.63;;;;;;;-145.69;40.70;52032.47;5527347;26;20705;-78
2024/04/10 09:11:23;;;;;;;13.20;1.87;;;;;;;-145.69;40.81;52032.47;5526971;26;20700;-81
2024/04/10 09:14:01;;;;;;;5.53;1.27;;;;;;;-145.69;40.09;52012.69;5526966;26;20261;-80
2024/04/10 09:16:27;;;;;;;10.90;1.73;;;;;;;-145.69;39.90;52022.59;5527102;26;20221;-80
2024/04/10 09:18:58;;;;;;;8.10;1.70;;;;;;;-145.69;40.11;52010.69;5527437;26;20225;-78
2024/04/10 09:21:23;;;;;;;9.23;1.53;;;;;;;-145.69;40.08;52038.44;5524109;26;20285;-78
2024/04/10 09:24:00;;;;;;;4.73;1.33;;;;;;;-145.69;39.96;52028.53;5496841;26;20272;-79
2024/04/10 09:26:26;;;;;;;11.57;1.50;;;;;;;-145.69;40.16;52024.56;5526067;26;20264;-78
2024/04/10 09:29:04;;;;;;;5.60;1.60;;;;;;;-145.69;40.63;52060.22;5526831;26;20221;-78
2024/04/10 09:31:30;;;;;;;10.20;1.50;;;;;;;-145.69;41.04;52044.38;5527263;26;20236;-79
2024/04/10 09:34:01;;;;;;;5.53;1.70;;;;;;;-145.69;40.65;52052.28;5526744;26;20317;-81
2024/04/10 09:36:31;;;;;;;7.67;1.63;;;;;;;-145.69;40.00;51988.91;5526190;26;20229;-79
2024/04/10 09:39:03;;;;;;;8.87;1.80;;;;;;;-145.69;37.60;51981.00;5516264;26;20254;-79
2024/04/10 09:41:31;;;;;;;10.17;1.47;;;;;;;-145.69;37.75;52018.63;5488644;26;20219;-80
2024/04/10 09:44:01;;;;;;;11.50;1.40;;;;;;;-145.69;36.95;52024.56;5492691;26;20326;-78
2024/04/10 09:46:34;;;;;;;10.30;1.30;;;;;;;-145.69;37.39;52020.59;5490009;26;20261;-78
2024/04/10 09:49:11;;;;;;;4.53;1.27;;;;;;;-145.69;38.46;52008.72;5489568;26;20291;-79
2024/04/10 09:51:38;;;;;;;6.53;1.50;;;;;;;-145.69;37.93;52024.56;5516807;26;20323;-79
2024/04/10 09:54:08;;;;;;;10.03;1.57;;;;;;;-145.69;37.95;52012.69;5526553;26;20692;-78
2024/04/10 09:56:35;;;;;;;8.43;1.50;;;;;;;-145.69;37.67;52004.75;5505827;26;20307;-78
2024/04/10 09:59:04;;;;;;;4.17;1.27;;;;;;;-145.69;37.97;51992.88;5497073;26;20237;-78
2024/04/10 10:01:29;;;;;;;3.33;1.00;;;;;;;-145.69;37.60;51996.84;5526084;26;20289;-78
2024/04/10 10:03:58;;;;;;;5.83;1.60;;;;;;;-145.69;37.66;51992.88;5526437;26;20324;-78
2024/04/10 10:06:30;;;;;;;5.77;1.30;;;;;;;-145.69;36.67;51988.91;5526290;26;20329;-79
2024/04/10 10:08:58;;;;;;;8.88;1.63;;;;;;;-145.69;35.74;52016.66;5525728;26;20663;-78
2024/04/10 10:11:24;;;;;;;6.10;1.73;;;;;;;-145.69;36.42;51992.88;5526214;26;20218;-78
2024/04/10 10:13:59;;;;;;;5.20;1.30;;;;;;;-145.69;36.55;51990.91;5509912;26;20229;-78
2024/04/10 10:16:25;;;;;;;5.95;1.60;;;;;;;-145.69;36.11;52006.75;5526521;26;20704;-78
2024/04/10 10:18:56;;;;;;;7.45;1.58;;;;;;;-145.69;36.30;51984.97;5526293;26;20696;-78
2024/04/10 10:21:22;;;;;;;6.15;1.60;;;;;;;-145.69;36.01;51992.88;5526402;26;20676;-79
2024/04/10 10:24:00;;;;;;;6.43;1.95;;;;;;;-145.69;36.02;51982.97;5525689;26;20318;-78
2024/04/10 10:26:27;;;;;;;7.82;1.45;;;;;;;-145.69;36.08;51994.88;5525951;26;20217;-76
2024/04/10 10:29:03;;;;;;;5.28;1.33;;;;;;;-145.69;35.26;51969.13;5525331;26;20308;-78
2024/04/10 10:31:28;;;;;;;5.22;1.45;;;;;;;-145.69;35.72;52012.69;5491924;26;20253;-79
2024/04/10 10:34:01;;;;;;;5.07;1.60;;;;;;;-145.69;34.81;51961.19;5487581;26;20226;-78
2024/04/10 10:36:31;;;;;;;7.45;1.30;;;;;;;-145.69;34.33;51951.28;5489328;26;20286;-78
2024/04/10 10:39:08;;;;;;;9.00;1.63;;;;;;;-145.69;33.95;51959.22;5489137;26;20681;-78
2024/04/10 10:41:34;;;;;;;7.68;1.45;;;;;;;-145.69;33.69;51967.13;5511707;26;20225;-78
2024/04/10 10:44:03;;;;;;;6.07;1.55;;;;;;;-145.69;33.87;51971.09;5525582;25;20285;-79
2024/04/10 10:46:28;;;;;;;5.80;1.33;;;;;;;-145.69;33.32;51949.31;5521627;25;20604;-78
2024/04/10 10:48:57;;;;;;;4.60;1.33;;;;;;;-145.69;33.30;51941.41;5496692;26;20241;-79
2024/04/10 10:51:23;;;;;;;5.15;1.40;;;;;;;-145.69;33.54;51943.38;5525817;26;20234;-78
2024/04/10 10:53:52;;;;;;;9.30;1.50;;;;;;;-145.69;33.66;51973.06;5525730;26;20229;-78
2024/04/10 10:56:28;;;;;;;4.63;1.30;;;;;;;-145.69;31.51;51963.19;5525896;26;20608;-79
2024/04/10 10:58:56;;;;;;;4.22;1.30;;;;;;;-145.69;32.17;51969.13;5525536;26;20228;-77
2024/04/10 11:01:22;;;;;;;5.15;1.13;;;;;;;-145.69;32.48;51959.22;5526157;25;20229;-79
2024/04/10 11:03:50;;;;;;;14.63;1.63;;;;;;;-145.69;32.89;51953.28;5515889;26;20230;-79
2024/04/10 11:06:16;;;;;;;6.53;1.65;;;;;;;-145.69;33.57;51933.47;5503059;26;20225;-79
2024/04/10 11:08:44;;;;;;;7.65;1.52;;;;;;;-145.69;33.26;51984.97;5525438;26;20302;-78
2024/04/10 11:11:16;;;;;;;5.05;1.48;;;;;;;-145.69;33.69;51969.13;5525496;26;20301;-78
2024/04/10 11:13:56;;;;;;;7.28;1.90;;;;;;;-145.69;34.02;51963.19;5525223;25;20226;-76
2024/04/10 11:16:26;;;;;;;5.88;1.08;;;;;;;-145.69;33.51;51937.44;5523191;26;20306;-76
2024/04/10 11:18:54;;;;;;;3.40;1.02;;;;;;;-145.69;33.83;51971.09;5492886;26;20323;-77
2024/04/10 11:21:20;;;;;;;4.70;1.10;;;;;;;-145.69;33.38;51933.47;5490601;26;20234;-78
2024/04/10 11:24:08;;;;;;;6.55;1.50;;;;;;;-145.69;33.08;51941.41;5487440;26;20272;-78
2024/04/10 11:26:39;;;;;;;4.05;1.50;;;;;;;-145.69;33.07;51961.19;5488048;26;20752;-78